Time;durP1;ratioP1;P1;durP2;ratioP2;P2;SDS_P1;SDS_P2;PMS_P1;PMS_P2;Temp;Humidity;BMP_temperature;BMP_pressure;BME280_temperature;BME280_humidity;BME280_pressure;Samples;Min_cycle;Max_cycle;Signal;HPM_P1;HPM_P2
2022/11/27 00:01:13;;;;;;;317.65;80.40;;;7.40;99.90;;;;;;5032775;28;20105;-67
2022/11/27 00:03:40;;;;;;;338.88;78.07;;;7.40;99.90;;;;;;5033420;28;20056;-67
2022/11/27 00:06:06;;;;;;;362.70;86.63;;;7.40;99.90;;;;;;5033395;28;20053;-67
2022/11/27 00:08:32;;;;;;;372.63;88.65;;;7.40;99.90;;;;;;5033289;28;20022;-66
2022/11/27 00:11:05;;;;;;;385.65;89.22;;;7.40;99.90;;;;;;5033326;28;20095;-67
2022/11/27 00:13:30;;;;;;;290.13;77.90;;;7.40;99.90;;;;;;5032962;28;20032;-67
2022/11/27 00:15:56;;;;;;;358.52;82.30;;;7.40;99.90;;;;;;5033536;28;20370;-67
2022/11/27 00:18:22;;;;;;;345.25;83.72;;;7.40;99.90;;;;;;5032997;28;20029;-67
2022/11/27 00:20:47;;;;;;;352.30;88.10;;;7.40;99.90;;;;;;5032192;28;20028;-67
2022/11/27 00:23:13;;;;;;;360.35;87.40;;;7.40;99.90;;;;;;5033198;28;20547;-67
2022/11/27 00:25:38;;;;;;;307.45;81.60;;;7.40;99.90;;;;;;5033122;28;20144;-67
2022/11/27 00:28:04;;;;;;;354.73;85.88;;;7.40;99.90;;;;;;5032898;28;20143;-67
2022/11/27 00:30:29;;;;;;;320.67;80.95;;;7.40;99.90;;;;;;5033305;28;20021;-66
2022/11/27 00:32:55;;;;;;;356.63;86.55;;;7.40;99.90;;;;;;5032513;28;20111;-67
2022/11/27 00:35:20;;;;;;;265.08;77.00;;;7.40;99.90;;;;;;5033319;28;20049;-67
2022/11/27 00:37:46;;;;;;;322.30;83.00;;;7.30;99.90;;;;;;5033116;28;20032;-67
2022/11/27 00:40:11;;;;;;;300.15;78.03;;;7.40;99.90;;;;;;5033682;28;20040;-67
2022/11/27 00:42:37;;;;;;;316.33;78.45;;;7.40;99.90;;;;;;5032344;28;20029;-67
2022/11/27 00:45:03;;;;;;;306.73;81.90;;;7.40;99.90;;;;;;5033073;28;20079;-67
2022/11/27 00:47:28;;;;;;;309.25;82.22;;;7.40;99.90;;;;;;5032864;28;20084;-67
2022/11/27 00:49:54;;;;;;;312.23;82.55;;;7.40;99.90;;;;;;5032993;28;20082;-67
2022/11/27 00:52:19;;;;;;;268.27;77.50;;;7.30;99.90;;;;;;5032546;28;20029;-67
2022/11/27 00:54:45;;;;;;;310.15;77.30;;;7.30;99.90;;;;;;5033061;28;20029;-67
2022/11/27 00:57:10;;;;;;;271.45;76.07;;;7.30;99.90;;;;;;5033161;28;20465;-67
2022/11/27 00:59:36;;;;;;;264.77;74.28;;;7.40;99.90;;;;;;5033195;28;20032;-67
2022/11/27 01:02:01;;;;;;;304.92;79.10;;;7.30;99.90;;;;;;5033133;28;20380;-67
2022/11/27 01:04:27;;;;;;;265.75;74.70;;;7.40;99.90;;;;;;5032784;28;20025;-66
2022/11/27 01:06:53;;;;;;;298.00;78.53;;;7.40;99.90;;;;;;5032503;28;20100;-67
2022/11/27 01:09:18;;;;;;;246.00;71.07;;;7.40;99.90;;;;;;5032861;28;20026;-67
2022/11/27 01:11:44;;;;;;;310.88;76.30;;;7.30;99.90;;;;;;5032969;28;20029;-66
2022/11/27 01:14:17;;;;;;;285.67;79.65;;;7.40;99.90;;;;;;5033096;28;20104;-67
2022/11/27 01:16:42;;;;;;;260.50;76.55;;;7.40;99.90;;;;;;5032817;28;20084;-67
2022/11/27 01:19:09;;;;;;;260.35;71.32;;;7.40;99.90;;;;;;5032914;28;20030;-66
2022/11/27 01:21:35;;;;;;;308.15;80.47;;;7.30;99.90;;;;;;5032304;28;20117;-66
2022/11/27 01:24:02;;;;;;;240.13;71.95;;;7.30;99.90;;;;;;5032714;28;20100;-67
2022/11/27 01:26:27;;;;;;;241.93;73.70;;;7.30;99.90;;;;;;5032935;28;20087;-66
2022/11/27 01:28:55;;;;;;;288.15;73.50;;;7.30;99.90;;;;;;5032708;28;20448;-66
2022/11/27 01:31:23;;;;;;;251.18;75.05;;;7.30;99.90;;;;;;5033675;28;20525;-67
2022/11/27 01:33:58;;;;;;;267.55;77.30;;;7.30;99.90;;;;;;5035957;28;20061;-66
2022/11/27 01:36:23;;;;;;;293.67;77.47;;;7.20;99.90;;;;;;5036611;28;20040;-66
2022/11/27 01:38:49;;;;;;;239.80;75.20;;;7.20;99.90;;;;;;5036396;28;20385;-67
2022/11/27 01:41:19;;;;;;;259.10;75.35;;;7.20;99.90;;;;;;5036199;28;20040;-67
2022/11/27 01:43:59;;;;;;;277.65;76.70;;;7.20;99.90;;;;;;5036243;28;20032;-67
2022/11/27 01:46:45;;;;;;;258.40;71.05;;;7.20;99.90;;;;;;5035883;28;20021;-66
2022/11/27 01:49:10;;;;;;;246.15;72.45;;;7.20;99.90;;;;;;5036510;28;20412;-67
2022/11/27 01:51:54;;;;;;;234.60;71.07;;;7.20;99.90;;;;;;5035832;28;20101;-67
2022/11/27 01:54:21;;;;;;;;;;;7.10;99.90;;;;;;5035706;28;20053;-67
2022/11/27 01:56:50;;;;;;;243.45;72.97;;;7.10;99.90;;;;;;5035716;28;20316;-67
2022/11/27 01:59:17;;;;;;;250.88;74.88;;;7.10;99.90;;;;;;5035817;28;20127;-67
2022/11/27 02:01:42;;;;;;;232.05;70.50;;;7.00;99.90;;;;;;5036047;28;20385;-67
2022/11/27 02:04:08;;;;;;;240.63;70.85;;;7.10;99.90;;;;;;5035309;28;20032;-67
2022/11/27 02:06:34;;;;;;;231.60;71.07;;;7.00;99.90;;;;;;5035789;28;20033;-66
2022/11/27 02:08:59;;;;;;;271.80;74.82;;;7.10;99.90;;;;;;5036339;28;20026;-67
2022/11/27 02:11:34;;;;;;;263.77;75.70;;;7.00;99.90;;;;;;5034394;28;20028;-66
2022/11/27 02:14:25;;;;;;;252.73;71.72;;;7.00;99.90;;;;;;5035972;28;20025;-67
2022/11/27 02:17:01;;;;;;;214.27;68.78;;;7.00;99.90;;;;;;5035474;28;20033;-66
2022/11/27 02:19:49;;;;;;;262.23;75.25;;;7.00;99.90;;;;;;5035934;28;20033;-67
2022/11/27 02:22:33;;;;;;;246.52;75.60;;;6.90;99.90;;;;;;5035794;28;20029;-66
2022/11/27 02:25:19;;;;;;;235.68;70.63;;;6.90;99.90;;;;;;5035770;28;20086;-66
2022/11/27 02:27:56;;;;;;;230.90;68.47;;;6.90;99.90;;;;;;5034844;28;20021;-67
2022/11/27 02:30:22;;;;;;;223.57;72.40;;;6.90;99.90;;;;;;5035607;28;20018;-67
2022/11/27 02:32:55;;;;;;;228.48;69.93;;;6.80;99.90;;;;;;5035632;28;20465;-67
2022/11/27 02:35:32;;;;;;;195.77;65.93;;;6.80;99.90;;;;;;5035192;28;20030;-66
2022/11/27 02:38:24;;;;;;;212.10;64.82;;;6.80;99.90;;;;;;5035455;28;20795;-67
2022/11/27 02:40:56;;;;;;;210.20;63.92;;;6.70;99.90;;;;;;5028207;28;20422;-67
2022/11/27 02:43:36;;;;;;;205.65;66.13;;;6.60;99.90;;;;;;5034860;28;20029;-67
2022/11/27 02:46:04;;;;;;;204.55;63.00;;;6.60;99.90;;;;;;5035266;28;20022;-66
2022/11/27 02:48:34;;;;;;;197.40;63.88;;;6.50;99.90;;;;;;5034701;28;20083;-67
2022/11/27 02:51:02;;;;;;;205.85;60.70;;;6.50;99.90;;;;;;5035071;28;20039;-66
2022/11/27 02:53:53;;;;;;;205.70;61.28;;;6.40;99.90;;;;;;5034954;28;20026;-66
2022/11/27 02:56:23;;;;;;;166.68;58.85;;;6.40;99.90;;;;;;5034348;28;20021;-66
2022/11/27 02:58:50;;;;;;;194.18;57.58;;;6.40;99.90;;;;;;5035238;28;20397;-67
2022/11/27 03:01:19;;;;;;;172.40;55.20;;;6.30;99.90;;;;;;5034815;28;20017;-66
2022/11/27 03:03:47;;;;;;;189.50;59.90;;;6.10;99.90;;;;;;5034996;28;20033;-67
2022/11/27 03:06:18;;;;;;;198.48;55.90;;;6.10;99.90;;;;;;5035181;28;20022;-67
2022/11/27 03:08:57;;;;;;;182.07;58.58;;;6.10;99.90;;;;;;5035028;28;20508;-66
2022/11/27 03:11:23;;;;;;;180.98;56.92;;;6.00;99.90;;;;;;5034793;28;20030;-67
2022/11/27 03:13:54;;;;;;;200.40;58.28;;;5.90;99.90;;;;;;5034879;28;20034;-67
2022/11/27 03:16:25;;;;;;;194.95;58.92;;;5.90;99.90;;;;;;5034717;28;20057;-67
2022/11/27 03:19:22;;;;;;;202.63;60.78;;;5.90;99.90;;;;;;5034260;28;20044;-67
2022/11/27 03:22:00;;;;;;;208.95;61.28;;;6.00;99.90;;;;;;5034418;28;20033;-66
2022/11/27 03:24:28;;;;;;;186.25;60.00;;;6.00;99.90;;;;;;5034266;28;20388;-67
2022/11/27 03:26:54;;;;;;;208.05;60.92;;;5.90;99.90;;;;;;5034321;28;20024;-66
2022/11/27 03:29:25;;;;;;;196.68;60.72;;;5.80;99.90;;;;;;5034546;28;20032;-67
2022/11/27 03:31:50;;;;;;;198.98;56.95;;;5.80;99.90;;;;;;5033801;28;20516;-67
2022/11/27 03:34:16;;;;;;;193.10;57.15;;;5.70;99.90;;;;;;5034092;28;20057;-67
2022/11/27 03:36:42;;;;;;;207.55;59.05;;;5.60;99.90;;;;;;5034377;28;20026;-66
2022/11/27 03:39:07;;;;;;;182.35;55.83;;;5.60;99.90;;;;;;5034248;28;20029;-67
2022/11/27 03:41:39;;;;;;;193.38;56.05;;;5.60;99.90;;;;;;5033552;28;20018;-67
2022/11/27 03:44:32;;;;;;;177.10;53.38;;;5.50;99.90;;;;;;5034041;28;20025;-66
2022/11/27 03:47:29;;;;;;;186.02;54.97;;;5.40;99.90;;;;;;5034145;28;20547;-67
2022/11/27 03:50:14;;;;;;;172.52;55.20;;;5.30;99.90;;;;;;5034239;28;20025;-66
2022/11/27 03:53:04;;;;;;;176.80;54.08;;;5.20;99.90;;;;;;5033552;28;20512;-66
2022/11/27 03:55:58;;;;;;;173.40;53.08;;;5.10;99.90;;;;;;5033140;28;20037;-66
2022/11/27 03:58:35;;;;;;;149.15;49.45;;;5.10;99.90;;;;;;5033624;28;20033;-66
2022/11/27 04:01:03;;;;;;;184.90;52.40;;;5.00;99.90;;;;;;5033134;28;20511;-66
2022/11/27 04:03:29;;;;;;;177.40;51.83;;;5.00;99.90;;;;;;5033341;28;20499;-66
2022/11/27 04:05:56;;;;;;;197.65;53.83;;;4.90;99.90;;;;;;5033333;28;20022;-66
2022/11/27 04:08:23;;;;;;;201.65;55.80;;;5.00;99.90;;;;;;5033813;28;20067;-67
2022/11/27 04:10:48;;;;;;;199.35;58.28;;;5.00;99.90;;;;;;5033554;28;20482;-67
2022/11/27 04:13:14;;;;;;;187.70;56.38;;;5.00;99.90;;;;;;5033476;28;20044;-67
2022/11/27 04:15:40;;;;;;;211.45;57.25;;;4.90;99.90;;;;;;5032927;28;20060;-66
2022/11/27 04:18:06;;;;;;;184.10;56.03;;;4.90;99.90;;;;;;5032026;28;20555;-67
2022/11/27 04:20:32;;;;;;;219.98;57.50;;;4.90;99.90;;;;;;5033464;28;20029;-67
2022/11/27 04:22:57;;;;;;;203.07;58.45;;;4.90;99.90;;;;;;5033319;28;20034;-67
2022/11/27 04:25:23;;;;;;;174.38;53.80;;;4.90;99.90;;;;;;5032810;28;20029;-66
2022/11/27 04:27:50;;;;;;;185.73;54.35;;;4.80;99.90;;;;;;5033477;28;20037;-66
2022/11/27 04:30:16;;;;;;;218.65;59.63;;;4.70;99.90;;;;;;5033323;28;20418;-67
2022/11/27 04:32:41;;;;;;;202.18;56.17;;;4.70;99.90;;;;;;5033240;28;20159;-66
2022/11/27 04:35:08;;;;;;;215.05;58.72;;;4.80;99.90;;;;;;5033211;28;20025;-66
2022/11/27 04:37:34;;;;;;;190.35;58.85;;;4.80;99.90;;;;;;5033150;28;20410;-67
2022/11/27 04:39:59;;;;;;;202.65;57.17;;;4.80;99.90;;;;;;5032622;28;20040;-66
2022/11/27 04:42:25;;;;;;;191.73;55.75;;;4.90;99.90;;;;;;5032924;28;20028;-66
2022/11/27 04:44:51;;;;;;;201.88;59.58;;;4.90;99.90;;;;;;5033100;28;20025;-67
2022/11/27 04:47:17;;;;;;;181.48;58.45;;;4.90;99.90;;;;;;5033009;28;20029;-66
2022/11/27 04:49:42;;;;;;;221.93;58.00;;;4.90;99.90;;;;;;5033094;28;20049;-67
2022/11/27 04:52:09;;;;;;;186.25;55.08;;;4.80;99.90;;;;;;5032634;28;20025;-66
2022/11/27 04:54:35;;;;;;;188.88;52.15;;;4.60;99.90;;;;;;5033047;28;20083;-67
2022/11/27 04:57:01;;;;;;;172.43;51.67;;;4.50;99.90;;;;;;5032940;28;20026;-67
2022/11/27 04:59:27;;;;;;;161.75;51.17;;;4.60;99.90;;;;;;5033141;28;20017;-67
2022/11/27 05:01:52;;;;;;;186.07;52.40;;;4.60;99.90;;;;;;5033235;28;20029;-67
2022/11/27 05:04:19;;;;;;;160.27;49.70;;;4.70;99.90;;;;;;5032153;28;20033;-66
2022/11/27 05:06:44;;;;;;;180.30;50.10;;;4.70;99.90;;;;;;5036123;28;20084;-66
2022/11/27 05:09:10;;;;;;;168.02;52.95;;;4.70;99.90;;;;;;5036919;28;20038;-66
2022/11/27 05:11:35;;;;;;;158.05;47.17;;;4.70;99.90;;;;;;5036848;28;20107;-66
2022/11/27 05:14:21;;;;;;;172.43;51.58;;;4.60;99.90;;;;;;5037129;28;20033;-67
2022/11/27 05:16:52;;;;;;;169.00;50.08;;;4.60;99.90;;;;;;5152640;23;20037;-73
2022/11/27 05:19:20;;;;;;;196.32;54.38;;;4.60;99.90;;;;;;5036114;28;20406;-73
2022/11/27 05:21:47;;;;;;;174.63;53.60;;;4.60;99.90;;;;;;5036759;28;20041;-74
2022/11/27 05:24:14;;;;;;;197.15;54.03;;;4.60;99.90;;;;;;5036671;28;20041;-74
2022/11/27 05:26:41;;;;;;;167.32;53.72;;;4.50;99.90;;;;;;5036431;28;20046;-73
2022/11/27 05:29:08;;;;;;;179.07;53.30;;;4.50;99.90;;;;;;5036328;28;20017;-72
2022/11/27 05:31:34;;;;;;;210.82;57.38;;;4.60;99.90;;;;;;5018911;28;20029;-74
2022/11/27 05:34:00;;;;;;;203.23;56.33;;;4.70;99.90;;;;;;5036567;28;20076;-73
2022/11/27 05:36:26;;;;;;;208.13;56.78;;;4.60;99.90;;;;;;5018699;28;20029;-74
2022/11/27 05:38:51;;;;;;;203.40;56.33;;;4.60;99.90;;;;;;5018769;28;20108;-73
2022/11/27 05:41:17;;;;;;;214.00;60.33;;;4.70;99.90;;;;;;5035932;28;20033;-74
2022/11/27 05:43:42;;;;;;;206.98;59.00;;;4.70;99.90;;;;;;5036516;28;20477;-74
2022/11/27 05:46:12;;;;;;;184.10;54.17;;;4.60;99.90;;;;;;5036475;28;20028;-73
2022/11/27 05:48:38;;;;;;;191.15;55.63;;;4.60;99.90;;;;;;5036609;28;20065;-73
2022/11/27 05:51:04;;;;;;;171.38;52.13;;;4.60;99.90;;;;;;5036235;28;20064;-74
2022/11/27 05:53:30;;;;;;;174.38;51.58;;;4.50;99.90;;;;;;5036056;28;20037;-73
2022/11/27 05:56:11;;;;;;;150.20;47.63;;;4.50;99.90;;;;;;5036159;28;20025;-73
2022/11/27 05:58:38;;;;;;;138.65;47.35;;;4.40;99.90;;;;;;5036373;28;20028;-74
2022/11/27 06:01:05;;;;;;;161.30;47.80;;;4.30;99.90;;;;;;5036255;28;20063;-74
2022/11/27 06:03:30;;;;;;;181.85;51.38;;;4.30;99.90;;;;;;5035518;28;20164;-73
2022/11/27 06:05:56;;;;;;;158.95;47.42;;;4.20;99.90;;;;;;5035847;28;20056;-73
2022/11/27 06:08:22;;;;;;;115.90;39.72;;;4.10;99.90;;;;;;5035653;28;20022;-74
2022/11/27 06:10:47;;;;;;;142.85;43.78;;;4.00;99.90;;;;;;5035757;28;20381;-73
2022/11/27 06:13:14;;;;;;;116.00;37.45;;;4.00;99.90;;;;;;5035829;28;20512;-73
2022/11/27 06:15:40;;;;;;;117.38;37.22;;;3.90;99.90;;;;;;5035397;28;20037;-73
2022/11/27 06:18:06;;;;;;;128.07;38.83;;;3.90;99.90;;;;;;5034771;28;20033;-73
2022/11/27 06:20:32;;;;;;;110.28;39.63;;;3.90;99.90;;;;;;5035949;28;20026;-73
2022/11/27 06:22:57;;;;;;;145.70;41.35;;;3.80;99.90;;;;;;5035817;28;20079;-74
2022/11/27 06:25:24;;;;;;;132.18;37.75;;;3.90;99.90;;;;;;5036169;28;20560;-74
2022/11/27 06:27:50;;;;;;;125.57;39.45;;;3.90;99.90;;;;;;5035086;28;20033;-73
2022/11/27 06:30:15;;;;;;;115.53;37.63;;;3.80;99.90;;;;;;5035395;28;20026;-73
2022/11/27 06:32:41;;;;;;;94.75;34.42;;;3.80;99.90;;;;;;5035087;28;20033;-73
2022/11/27 06:35:07;;;;;;;97.13;33.50;;;3.80;99.90;;;;;;5035486;28;20500;-73
2022/11/27 06:37:33;;;;;;;104.93;33.00;;;3.80;99.90;;;;;;5035341;28;20497;-74
2022/11/27 06:39:58;;;;;;;103.32;34.30;;;3.80;99.90;;;;;;5035490;28;20044;-74
2022/11/27 06:42:24;;;;;;;99.80;33.00;;;3.80;99.90;;;;;;5034874;28;20109;-74
2022/11/27 06:44:49;;;;;;;121.88;35.90;;;3.80;99.90;;;;;;5035267;28;20033;-73
2022/11/27 06:47:15;;;;;;;97.97;31.58;;;3.80;99.90;;;;;;5017558;28;20021;-73
2022/11/27 06:49:40;;;;;;;103.72;34.28;;;3.70;99.90;;;;;;5035343;28;20412;-74
2022/11/27 06:52:06;;;;;;;85.32;32.08;;;3.70;99.90;;;;;;5017570;28;20033;-74
2022/11/27 06:54:31;;;;;;;123.22;34.17;;;3.70;99.90;;;;;;5017633;28;20033;-74
2022/11/27 06:56:57;;;;;;;105.30;31.60;;;3.60;99.90;;;;;;5016948;28;20025;-73
2022/11/27 06:59:23;;;;;;;111.18;32.10;;;3.60;99.90;;;;;;5035458;28;20033;-74
2022/11/27 07:01:48;;;;;;;110.93;33.38;;;3.60;99.90;;;;;;5035549;28;20027;-74
2022/11/27 07:04:15;;;;;;;107.30;30.77;;;3.60;99.90;;;;;;5017289;28;20061;-73
2022/11/27 07:06:41;;;;;;;91.35;30.15;;;3.60;99.90;;;;;;5035013;28;20493;-74
2022/11/27 07:09:08;;;;;;;120.40;29.98;;;3.70;99.90;;;;;;5034586;28;20026;-74
2022/11/27 07:11:35;;;;;;;104.75;30.23;;;3.70;99.90;;;;;;5017196;28;20212;-73
2022/11/27 07:14:02;;;;;;;103.40;30.55;;;3.70;99.90;;;;;;5035130;28;20033;-74
2022/11/27 07:16:31;;;;;;;92.13;27.67;;;3.80;99.90;;;;;;5034959;28;20455;-74
2022/11/27 07:18:59;;;;;;;100.18;31.17;;;3.80;99.90;;;;;;5035766;28;20101;-74
2022/11/27 07:21:25;;;;;;;113.07;26.65;;;3.70;99.90;;;;;;5017275;28;20033;-74
2022/11/27 07:23:50;;;;;;;97.32;28.80;;;3.70;99.90;;;;;;5035540;28;20038;-74
2022/11/27 07:26:22;;;;;;;95.07;30.65;;;3.80;99.90;;;;;;5018062;28;20044;-74
2022/11/27 07:28:48;;;;;;;101.95;29.35;;;3.70;99.90;;;;;;5016598;28;20022;-74
2022/11/27 07:31:19;;;;;;;107.57;29.85;;;3.80;99.90;;;;;;5017926;28;20400;-74
2022/11/27 07:33:44;;;;;;;85.53;28.90;;;3.80;99.90;;;;;;5035278;28;20068;-74
2022/11/27 07:36:16;;;;;;;106.88;31.65;;;3.70;99.90;;;;;;5035112;28;20489;-74
2022/11/27 07:38:42;;;;;;;93.20;29.05;;;3.80;99.90;;;;;;5035094;28;20031;-73
2022/11/27 07:41:09;;;;;;;100.07;30.15;;;3.80;99.90;;;;;;5034960;28;20366;-74
2022/11/27 07:43:36;;;;;;;81.53;28.83;;;3.80;99.90;;;;;;5017302;28;20029;-73
2022/11/27 07:46:11;;;;;;;81.18;27.35;;;3.80;99.90;;;;;;5034492;28;20096;-74
2022/11/27 07:48:37;;;;;;;96.35;28.10;;;3.70;99.90;;;;;;5034694;28;20033;-74
2022/11/27 07:51:10;;;;;;;72.55;25.58;;;3.70;99.90;;;;;;5017155;28;20022;-74
2022/11/27 07:53:40;;;;;;;95.25;27.52;;;3.70;99.90;;;;;;5034711;28;20029;-74
2022/11/27 07:56:06;;;;;;;78.95;28.67;;;3.80;99.90;;;;;;5033684;28;20025;-74
2022/11/27 07:58:32;;;;;;;89.43;30.40;;;3.80;99.90;;;;;;5034465;28;20027;-74
2022/11/27 08:00:58;;;;;;;112.38;28.30;;;3.90;99.90;;;;;;5034468;28;20093;-74
2022/11/27 08:03:24;;;;;;;113.40;29.63;;;3.90;99.90;;;;;;5033532;28;20037;-73
2022/11/27 08:05:49;;;;;;;92.07;28.10;;;4.00;99.90;;;;;;5033495;28;20048;-74
2022/11/27 08:08:15;;;;;;;91.85;30.60;;;4.10;99.90;;;;;;5033898;28;20037;-74
2022/11/27 08:10:41;;;;;;;94.65;28.13;;;4.10;99.90;;;;;;5015782;28;20025;-74
2022/11/27 08:13:06;;;;;;;103.25;29.35;;;4.20;99.90;;;;;;5033808;28;20021;-74
2022/11/27 08:15:32;;;;;;;83.82;28.13;;;4.20;99.90;;;;;;5033522;28;20493;-74
2022/11/27 08:17:58;;;;;;;88.80;29.13;;;4.10;99.90;;;;;;5033656;28;20053;-74
2022/11/27 08:20:24;;;;;;;100.30;29.73;;;4.20;99.90;;;;;;5032946;28;20421;-74
2022/11/27 08:22:49;;;;;;;79.85;27.75;;;4.20;99.90;;;;;;5033355;28;20030;-74
2022/11/27 08:25:15;;;;;;;89.82;27.55;;;4.10;99.90;;;;;;5033396;28;20018;-74
2022/11/27 08:27:41;;;;;;;91.07;30.15;;;4.20;99.90;;;;;;5015601;28;20029;-74
2022/11/27 08:30:07;;;;;;;103.30;27.40;;;4.20;99.90;;;;;;5033331;28;20022;-74
2022/11/27 08:32:33;;;;;;;90.95;28.70;;;4.20;99.90;;;;;;5016119;28;20047;-74
2022/11/27 08:34:58;;;;;;;87.47;28.10;;;4.20;99.90;;;;;;5032909;28;20485;-74
2022/11/27 08:37:24;;;;;;;97.50;28.88;;;4.20;99.90;;;;;;5015482;28;20033;-74
2022/11/27 08:39:49;;;;;;;88.00;27.52;;;4.30;99.90;;;;;;5032917;28;20030;-74
2022/11/27 08:42:15;;;;;;;85.45;28.08;;;4.30;99.90;;;;;;5033103;28;20381;-74
2022/11/27 08:44:41;;;;;;;82.15;26.90;;;4.30;99.90;;;;;;5033156;28;20432;-74
2022/11/27 08:47:06;;;;;;;105.22;29.40;;;4.30;99.90;;;;;;5032626;28;20033;-73
2022/11/27 08:49:32;;;;;;;85.65;28.45;;;4.30;99.90;;;;;;5033064;28;20044;-74
2022/11/27 08:51:58;;;;;;;90.13;30.27;;;4.40;99.90;;;;;;5015577;28;20119;-73
2022/11/27 08:54:23;;;;;;;96.10;28.50;;;4.40;99.90;;;;;;5033112;28;20035;-74
2022/11/27 08:56:51;;;;;;;92.40;28.67;;;4.40;99.90;;;;;;5033083;28;20497;-74
2022/11/27 08:59:16;;;;;;;80.32;29.25;;;4.40;99.90;;;;;;5014873;28;20117;-74
2022/11/27 09:01:42;;;;;;;82.15;28.17;;;4.40;99.90;;;;;;5032976;28;20112;-74
2022/11/27 09:04:08;;;;;;;92.57;30.88;;;4.40;99.90;;;;;;5032848;28;20033;-74
2022/11/27 09:06:33;;;;;;;103.55;30.08;;;4.50;99.90;;;;;;5032426;28;20111;-74
2022/11/27 09:09:00;;;;;;;72.00;29.02;;;4.50;99.90;;;;;;5032934;28;20029;-74
2022/11/27 09:11:32;;;;;;;73.03;29.10;;;4.50;99.90;;;;;;5033084;28;20045;-73
2022/11/27 09:13:59;;;;;;;88.60;28.50;;;4.50;99.90;;;;;;5032926;28;20022;-73
2022/11/27 09:16:25;;;;;;;72.60;28.08;;;4.50;99.90;;;;;;5032861;28;20025;-73
2022/11/27 09:18:53;;;;;;;83.28;28.85;;;4.50;99.90;;;;;;5032717;28;20087;-73
2022/11/27 09:21:21;;;;;;;84.18;28.33;;;4.50;99.90;;;;;;5014486;28;20025;-73
2022/11/27 09:23:46;;;;;;;70.57;28.70;;;4.50;99.90;;;;;;5032780;28;20030;-73
2022/11/27 09:26:15;;;;;;;99.25;31.15;;;4.50;99.90;;;;;;5032777;28;20109;-73
2022/11/27 09:28:42;;;;;;;78.53;29.95;;;4.60;99.90;;;;;;5032562;28;20017;-74
2022/11/27 09:31:10;;;;;;;67.40;28.60;;;4.60;99.90;;;;;;5032778;28;20032;-73
2022/11/27 09:33:37;;;;;;;81.18;30.15;;;4.70;99.90;;;;;;5014502;28;20022;-73
2022/11/27 09:36:08;;;;;;;81.38;30.77;;;4.70;99.90;;;;;;5014956;28;20030;-72
2022/11/27 09:38:34;;;;;;;76.22;30.70;;;4.70;99.90;;;;;;5032656;28;20143;-73
2022/11/27 09:41:09;;;;;;;79.85;29.85;;;4.70;99.90;;;;;;5032152;28;20029;-72
2022/11/27 09:43:41;;;;;;;89.70;31.30;;;4.70;99.90;;;;;;5032478;28;20037;-72
2022/11/27 09:46:16;;;;;;;82.28;28.75;;;4.80;99.90;;;;;;5032898;28;20025;-73
2022/11/27 09:48:45;;;;;;;84.25;31.73;;;4.80;99.90;;;;;;5032881;28;20366;-73
2022/11/27 09:51:24;;;;;;;76.40;30.23;;;4.70;99.90;;;;;;5032544;28;20021;-72
2022/11/27 09:54:16;;;;;;;89.65;30.35;;;4.70;99.90;;;;;;5034892;28;20160;-72
2022/11/27 09:56:46;;;;;;;82.10;29.10;;;4.70;99.90;;;;;;5036301;28;20037;-72
2022/11/27 09:59:16;;;;;;;74.75;28.05;;;4.70;99.90;;;;;;5018316;28;20033;-72
2022/11/27 10:01:42;;;;;;;69.32;28.35;;;4.70;99.90;;;;;;5036381;28;20017;-73
2022/11/27 10:04:17;;;;;;;66.55;28.10;;;4.70;99.90;;;;;;5035509;28;20386;-72
2022/11/27 10:06:57;;;;;;;75.15;30.02;;;4.70;99.90;;;;;;5018126;28;20397;-72
2022/11/27 10:09:57;;;;;;;71.95;29.40;;;4.70;99.90;;;;;;5036185;28;20017;-72
2022/11/27 10:12:56;;;;;;;74.65;30.30;;;4.80;99.90;;;;;;5035767;28;20021;-71
2022/11/27 10:15:42;;;;;;;77.20;29.00;;;4.80;99.90;;;;;;5034950;28;20500;-71
2022/11/27 10:18:20;;;;;;;77.65;32.05;;;4.80;99.90;;;;;;5035374;28;20136;-72
2022/11/27 10:21:12;;;;;;;86.82;28.58;;;4.90;99.90;;;;;;5035643;28;20021;-72
2022/11/27 10:24:01;;;;;;;71.80;27.25;;;4.90;99.90;;;;;;5023975;28;20037;-72
2022/11/27 10:26:29;;;;;;;70.45;29.00;;;4.90;99.90;;;;;;5024933;28;20036;-73
2022/11/27 10:29:22;;;;;;;67.35;29.35;;;4.90;99.90;;;;;;5036078;28;20473;-73
2022/11/27 10:31:57;;;;;;;84.85;30.10;;;4.90;99.90;;;;;;5035434;28;20025;-71
2022/11/27 10:34:43;;;;;;;78.78;31.40;;;4.90;99.90;;;;;;5035628;28;20374;-72
2022/11/27 10:37:27;;;;;;;75.00;29.25;;;4.90;99.90;;;;;;5034825;28;20017;-72
2022/11/27 10:39:58;;;;;;;62.17;28.20;;;4.80;99.90;;;;;;5035605;28;20032;-72
2022/11/27 10:42:32;;;;;;;78.18;32.03;;;4.80;99.90;;;;;;5035260;28;20029;-72
2022/11/27 10:45:01;;;;;;;77.53;31.77;;;4.80;99.90;;;;;;5034633;28;20025;-72
2022/11/27 10:47:28;;;;;;;70.00;28.38;;;4.90;99.90;;;;;;5034996;28;20160;-72
2022/11/27 10:49:53;;;;;;;71.90;30.15;;;4.90;99.90;;;;;;5035151;28;20425;-72
2022/11/27 10:52:20;;;;;;;65.95;29.77;;;4.90;99.90;;;;;;5035116;28;20108;-72
2022/11/27 10:54:56;;;;;;;67.82;28.27;;;4.90;99.90;;;;;;5035062;28;20028;-72
2022/11/27 10:57:49;;;;;;;79.65;29.95;;;4.90;99.90;;;;;;5034425;28;20022;-72
2022/11/27 11:00:20;;;;;;;72.15;27.77;;;4.90;99.90;;;;;;5035066;28;20029;-72
2022/11/27 11:02:45;;;;;;;66.38;29.08;;;5.00;99.90;;;;;;5034830;28;20087;-72
2022/11/27 11:05:17;;;;;;;64.25;27.52;;;5.00;99.90;;;;;;5034665;28;20021;-71
2022/11/27 11:08:05;;;;;;;69.60;28.77;;;5.00;99.90;;;;;;5034638;28;20477;-72
2022/11/27 11:10:34;;;;;;;65.05;27.48;;;5.10;99.90;;;;;;5034403;28;20404;-72
2022/11/27 11:13:05;;;;;;;61.78;28.20;;;5.00;99.90;;;;;;5034677;28;20072;-72
2022/11/27 11:15:31;;;;;;;66.88;29.90;;;5.10;99.90;;;;;;5034687;28;20029;-72
2022/11/27 11:17:57;;;;;;;63.95;29.05;;;5.20;99.90;;;;;;5134440;23;20041;-69
2022/11/27 11:20:24;;;;;;;77.70;30.65;;;5.30;99.90;;;;;;5034357;28;20473;-70
2022/11/27 11:22:50;;;;;;;68.10;29.98;;;5.20;99.90;;;;;;5034063;28;20511;-69
2022/11/27 11:25:18;;;;;;;64.50;28.58;;;5.20;99.90;;;;;;5033786;28;20075;-70
2022/11/27 11:27:44;;;;;;;64.63;31.63;;;5.20;99.90;;;;;;5032936;28;20032;-70
2022/11/27 11:30:20;;;;;;;71.72;29.20;;;5.30;99.90;;;;;;5034198;28;20050;-69
2022/11/27 11:32:48;;;;;;;63.30;28.88;;;5.30;99.90;;;;;;5034009;28;20036;-70
2022/11/27 11:35:31;;;;;;;60.97;27.67;;;5.30;99.90;;;;;;5034113;28;20029;-70
2022/11/27 11:37:58;;;;;;;59.30;27.48;;;5.30;99.90;;;;;;5034286;28;20101;-70
2022/11/27 11:40:32;;;;;;;53.90;26.65;;;5.40;99.90;;;;;;5033951;28;20025;-70
2022/11/27 11:42:59;;;;;;;63.67;26.60;;;5.40;99.90;;;;;;5034026;28;20511;-70
2022/11/27 11:45:27;;;;;;;56.63;28.35;;;5.40;99.90;;;;;;5033419;28;20496;-70
2022/11/27 11:47:56;;;;;;;59.75;27.55;;;5.40;99.90;;;;;;5034010;28;20036;-70
2022/11/27 11:50:41;;;;;;;67.88;28.40;;;5.40;99.90;;;;;;5033850;28;20489;-70
2022/11/27 11:53:21;;;;;;;65.53;29.63;;;5.40;99.90;;;;;;5034121;28;20061;-70
2022/11/27 11:56:07;;;;;;;60.22;29.23;;;5.40;99.90;;;;;;5034091;28;20485;-70
2022/11/27 11:58:36;;;;;;;51.97;25.65;;;5.50;99.90;;;;;;5033388;28;20068;-70
2022/11/27 12:01:44;;;;;;;58.17;26.55;;;5.50;99.90;;;;;;5033556;28;20025;-70
2022/11/27 12:05:01;;;;;;;48.83;25.83;;;5.50;99.90;;;;;;5033537;28;20026;-70
2022/11/27 12:07:42;;;;;;;49.20;24.40;;;5.50;99.90;;;;;;5002307;28;20121;-70
2022/11/27 12:10:21;;;;;;;48.40;23.77;;;5.50;99.90;;;;;;5031815;28;20025;-70
2022/11/27 12:12:46;;;;;;;58.58;30.13;;;5.50;99.90;;;;;;5033572;28;20018;-70
2022/11/27 12:15:39;;;;;;;58.95;30.60;;;5.50;99.90;;;;;;5032880;28;20025;-70
2022/11/27 12:18:36;;;;;;;53.97;27.77;;;5.50;99.90;;;;;;5032648;28;20041;-70
2022/11/27 12:21:16;;;;;;;60.78;25.77;;;5.50;99.90;;;;;;5032974;28;20048;-71
2022/11/27 12:24:00;;;;;;;61.63;27.52;;;5.50;99.90;;;;;;5033352;28;20084;-70
2022/11/27 12:26:28;;;;;;;46.80;24.73;;;5.50;99.90;;;;;;5033376;28;20037;-70
2022/11/27 12:29:30;;;;;;;56.55;24.40;;;5.50;99.90;;;;;;5033159;28;20525;-70
2022/11/27 12:32:23;;;;;;;47.63;23.48;;;5.50;99.90;;;;;;5033632;28;20057;-70
2022/11/27 12:35:13;;;;;;;53.40;23.85;;;5.50;99.90;;;;;;5033265;28;20370;-70
2022/11/27 12:37:50;;;;;;;47.42;24.73;;;5.50;99.90;;;;;;5033212;28;20369;-70
2022/11/27 12:40:42;;;;;;;55.13;24.40;;;5.60;99.90;;;;;;5033220;28;20097;-70
2022/11/27 12:43:26;;;;;;;45.67;22.42;;;5.50;99.90;;;;;;5030138;28;20563;-70
2022/11/27 12:46:33;;;;;;;51.60;22.85;;;5.50;99.90;;;;;;5033053;28;20128;-70
2022/11/27 12:49:09;;;;;;;40.83;22.52;;;5.40;99.90;;;;;;5032688;28;20112;-70